createdAt,value
2023-05-24T00:00:00.955Z,91.10
2023-05-24T00:02:28.094Z,92.02
2023-05-24T00:04:55.456Z,89.95
2023-05-24T00:07:22.427Z,89.75
2023-05-24T00:09:49.371Z,89.49
2023-05-24T00:12:16.741Z,90.68
2023-05-24T00:14:43.703Z,92.64
2023-05-24T00:17:10.639Z,92.63
2023-05-24T00:19:38.413Z,93.19
2023-05-24T00:22:05.656Z,92.89
2023-05-24T00:24:32.635Z,93.09
2023-05-24T00:26:59.596Z,93.99
2023-05-24T00:29:26.537Z,94.21
2023-05-24T00:31:53.524Z,94.05
2023-05-24T00:34:20.729Z,93.01
2023-05-24T00:36:47.677Z,94.88
2023-05-24T00:39:14.894Z,96.40
2023-05-24T00:41:41.864Z,95.10
2023-05-24T00:44:10.960Z,95.25
2023-05-24T00:46:38.490Z,95.40
2023-05-24T00:49:05.630Z,95.83
2023-05-24T00:51:33.954Z,96.91
2023-05-24T00:54:01.259Z,96.81
2023-05-24T00:56:28.609Z,97.17
2023-05-24T00:58:56.367Z,95.46
2023-05-24T01:01:30.893Z,96.42
2023-05-24T01:03:59.552Z,96.19
2023-05-24T01:06:28.322Z,96.35
2023-05-24T01:09:47.465Z,96.93
2023-05-24T01:13:06.109Z,95.39
2023-05-24T01:15:58.648Z,96.52
2023-05-24T01:18:57.132Z,96.17
2023-05-24T01:21:56.337Z,94.94
2023-05-24T01:24:44.596Z,95.43
2023-05-24T01:27:16.709Z,95.32
2023-05-24T01:29:43.769Z,94.35
2023-05-24T01:32:10.883Z,95.30
2023-05-24T01:34:37.814Z,94.94
2023-05-24T01:37:04.896Z,95.84
2023-05-24T01:39:31.812Z,95.08
2023-05-24T01:42:25.290Z,95.64
2023-05-24T01:44:57.997Z,94.84
2023-05-24T01:47:27.615Z,95.50
2023-05-24T01:49:57.830Z,95.78
2023-05-24T01:52:29.376Z,96.53
2023-05-24T01:54:57.534Z,96.11
2023-05-24T01:57:26.953Z,95.92
2023-05-24T01:59:55.377Z,95.60
2023-05-24T02:02:22.405Z,95.47
2023-05-24T02:04:49.691Z,96.14
2023-05-24T02:07:17.552Z,96.69
2023-05-24T02:09:44.549Z,96.29
2023-05-24T02:12:11.996Z,96.00
2023-05-24T02:14:39.169Z,95.49
2023-05-24T02:17:06.695Z,96.24
2023-05-24T02:19:36.835Z,96.23
2023-05-24T02:22:04.049Z,96.76
2023-05-24T02:24:31.053Z,95.90
2023-05-24T02:26:57.980Z,95.67
2023-05-24T02:29:25.444Z,95.31
2023-05-24T02:31:56.382Z,95.55
2023-05-24T02:34:24.302Z,94.79
2023-05-24T02:36:54.278Z,94.31
2023-05-24T02:39:21.506Z,93.41
2023-05-24T02:41:48.501Z,93.88
2023-05-24T02:44:15.417Z,93.67
2023-05-24T02:46:42.533Z,93.65
2023-05-24T02:49:10.470Z,93.66
2023-05-24T02:51:37.488Z,94.21
2023-05-24T02:54:04.528Z,93.26
2023-05-24T02:56:31.498Z,93.35
2023-05-24T02:58:58.725Z,93.33
2023-05-24T03:01:26.059Z,92.52
2023-05-24T03:03:53.092Z,93.66
2023-05-24T03:06:21.570Z,93.34
2023-05-24T03:08:49.710Z,93.13
2023-05-24T03:11:17.163Z,91.87
2023-05-24T03:13:44.419Z,92.82
2023-05-24T03:16:11.378Z,91.14
2023-05-24T03:18:38.396Z,91.60
2023-05-24T03:21:05.751Z,90.43
2023-05-24T03:23:32.724Z,89.43
2023-05-24T03:25:59.695Z,88.80
2023-05-24T03:28:27.553Z,91.39
2023-05-24T03:30:54.651Z,92.40
2023-05-24T03:33:21.631Z,91.59
2023-05-24T03:35:48.615Z,92.64
2023-05-24T03:38:15.772Z,92.55
2023-05-24T03:40:43.837Z,92.59
2023-05-24T03:43:10.931Z,92.96
2023-05-24T03:45:40.080Z,92.62
2023-05-24T03:48:07.486Z,93.14
2023-05-24T03:50:34.918Z,93.14
2023-05-24T03:53:03.860Z,93.20
2023-05-24T03:55:31.051Z,93.66
2023-05-24T03:57:58.084Z,94.91
2023-05-24T04:00:25.075Z,95.95
2023-05-24T04:02:52.098Z,95.44
2023-05-24T04:05:19.085Z,96.22
2023-05-24T04:07:46.458Z,95.98
2023-05-24T04:10:13.602Z,95.82
2023-05-24T04:12:41.503Z,94.85
2023-05-24T04:15:09.989Z,95.05
2023-05-24T04:17:37.296Z,93.74
2023-05-24T04:20:05.960Z,94.88
2023-05-24T04:22:33.005Z,95.74
2023-05-24T04:25:00.217Z,94.82
2023-05-24T04:27:27.472Z,94.72
2023-05-24T04:29:54.621Z,95.66
2023-05-24T04:32:21.701Z,94.97
2023-05-24T04:34:48.603Z,94.55
2023-05-24T04:37:17.370Z,94.65
2023-05-24T04:39:45.524Z,95.15
2023-05-24T04:42:13.705Z,93.88
2023-05-24T04:44:41.530Z,93.73
2023-05-24T04:47:09.841Z,94.89
2023-05-24T04:49:36.773Z,93.62
2023-05-24T04:52:03.932Z,94.61
2023-05-24T04:54:30.973Z,94.42
2023-05-24T04:56:57.927Z,93.37
2023-05-24T04:59:25.268Z,94.63
2023-05-24T05:01:52.477Z,92.81
2023-05-24T05:04:19.518Z,94.94
2023-05-24T05:06:48.292Z,94.28
2023-05-24T05:09:15.794Z,95.26
2023-05-24T05:11:43.294Z,93.82
2023-05-24T05:14:10.570Z,93.67
2023-05-24T05:16:38.677Z,94.96
2023-05-24T05:19:06.004Z,94.89
2023-05-24T05:21:34.148Z,94.32
2023-05-24T05:24:02.213Z,95.45
2023-05-24T05:26:30.461Z,95.32
2023-05-24T05:28:58.424Z,95.92
2023-05-24T05:31:25.675Z,94.59
2023-05-24T05:33:52.725Z,94.13
2023-05-24T05:36:19.851Z,92.88
2023-05-24T05:38:46.859Z,93.19
2023-05-24T05:41:13.792Z,91.40
2023-05-24T05:43:41.000Z,91.21
2023-05-24T05:46:08.012Z,89.27
2023-05-24T05:48:34.954Z,89.21
2023-05-24T05:51:02.009Z,88.45
2023-05-24T05:53:29.049Z,86.43
2023-05-24T05:55:56.798Z,88.51
2023-05-24T05:58:23.819Z,87.32
2023-05-24T06:00:51.423Z,89.08
2023-05-24T06:03:18.574Z,89.77
2023-05-24T06:05:45.641Z,88.84
2023-05-24T06:08:12.631Z,89.59
2023-05-24T06:10:39.550Z,89.67
2023-05-24T06:13:06.494Z,88.45
2023-05-24T06:15:34.510Z,87.18
2023-05-24T06:18:05.199Z,87.16
2023-05-24T06:20:32.462Z,87.12
2023-05-24T06:23:00.118Z,87.20
2023-05-24T06:25:30.837Z,86.16
2023-05-24T06:27:57.820Z,85.66
2023-05-24T06:30:25.871Z,87.88
2023-05-24T06:32:52.980Z,87.32
2023-05-24T06:35:20.098Z,85.22
2023-05-24T06:37:47.107Z,86.30
2023-05-24T06:40:14.168Z,86.33
2023-05-24T06:42:41.324Z,86.70
2023-05-24T06:45:09.313Z,86.25
2023-05-24T06:47:36.953Z,86.46
2023-05-24T06:50:05.231Z,87.31
2023-05-24T06:52:32.202Z,86.85
2023-05-24T06:54:59.313Z,86.75
2023-05-24T06:57:27.017Z,86.70
2023-05-24T06:59:54.007Z,86.30
2023-05-24T07:02:26.533Z,86.17
2023-05-24T07:04:53.995Z,84.37
2023-05-24T07:07:21.267Z,83.97
2023-05-24T07:09:48.179Z,84.62
2023-05-24T07:12:15.275Z,85.38
2023-05-24T07:14:42.744Z,80.35
2023-05-24T07:17:09.976Z,78.37
2023-05-24T07:19:37.166Z,78.14
2023-05-24T07:22:04.241Z,78.32
2023-05-24T07:24:31.336Z,77.71
2023-05-24T07:26:58.425Z,75.59
2023-05-24T07:29:26.132Z,75.64
2023-05-24T07:31:56.514Z,74.77
2023-05-24T07:34:27.412Z,73.45
2023-05-24T07:36:54.423Z,73.31
2023-05-24T07:39:21.421Z,76.52
2023-05-24T07:41:48.396Z,72.80
2023-05-24T07:44:15.752Z,75.54
2023-05-24T07:46:42.814Z,75.83
2023-05-24T07:49:09.760Z,74.88
2023-05-24T07:51:36.977Z,75.31
2023-05-24T07:54:04.069Z,74.50
2023-05-24T07:56:32.177Z,70.45
2023-05-24T07:59:05.724Z,72.09
2023-05-24T08:01:35.022Z,73.12
2023-05-24T08:04:04.349Z,71.34
2023-05-24T08:06:35.164Z,71.24
2023-05-24T08:09:04.402Z,70.95
2023-05-24T08:11:31.659Z,68.88
2023-05-24T08:13:58.653Z,69.14
2023-05-24T08:16:26.125Z,68.86
2023-05-24T08:18:55.096Z,69.54
2023-05-24T08:21:22.626Z,70.21
2023-05-24T08:23:49.943Z,68.47
2023-05-24T08:26:19.168Z,67.52
2023-05-24T08:28:46.427Z,67.71
2023-05-24T08:31:13.390Z,66.71
2023-05-24T08:33:41.444Z,68.82
2023-05-24T08:36:08.630Z,70.63
2023-05-24T08:38:35.755Z,71.07
2023-05-24T08:41:09.415Z,64.13
2023-05-24T08:43:38.865Z,66.85
2023-05-24T08:46:07.201Z,67.06
2023-05-24T08:48:46.278Z,66.29
2023-05-24T08:51:16.163Z,67.46
2023-05-24T08:53:48.624Z,63.17
2023-05-24T08:56:19.467Z,63.76
2023-05-24T08:58:47.217Z,62.25
2023-05-24T09:01:17.292Z,63.34
2023-05-24T09:03:47.362Z,62.91
2023-05-24T09:06:18.074Z,62.91
2023-05-24T09:08:46.284Z,64.54
2023-05-24T09:11:16.672Z,64.02
2023-05-24T09:13:45.735Z,62.78
2023-05-24T09:16:13.073Z,64.99
2023-05-24T09:18:42.765Z,63.29
2023-05-24T09:21:11.722Z,64.29
2023-05-24T09:23:39.413Z,64.88
2023-05-24T09:26:11.157Z,64.88
2023-05-24T09:28:38.953Z,60.38
2023-05-24T09:31:08.098Z,60.02
2023-05-24T09:33:36.181Z,60.98
2023-05-24T09:36:07.055Z,61.13
2023-05-24T09:38:36.131Z,64.22
2023-05-24T09:41:08.660Z,63.20
2023-05-24T09:43:49.500Z,60.51
2023-05-24T09:46:20.321Z,60.97
2023-05-24T09:48:58.643Z,62.52
2023-05-24T09:51:26.148Z,58.17
2023-05-24T09:53:58.778Z,61.12
2023-05-24T09:56:26.340Z,60.89
2023-05-24T09:58:54.929Z,59.44
2023-05-24T10:01:28.283Z,55.76
2023-05-24T10:04:03.277Z,55.70
2023-05-24T10:06:35.208Z,55.29
2023-05-24T10:09:05.334Z,56.61
2023-05-24T10:11:35.990Z,57.12
2023-05-24T10:14:07.756Z,56.40
2023-05-24T10:16:36.381Z,55.57
2023-05-24T10:19:04.003Z,54.18
2023-05-24T10:21:33.042Z,54.40
2023-05-24T10:24:02.421Z,56.63
2023-05-24T10:26:33.707Z,56.00
2023-05-24T10:29:11.567Z,56.61
2023-05-24T10:31:41.766Z,56.81
2023-05-24T10:34:09.955Z,55.68
2023-05-24T10:36:40.376Z,53.52
2023-05-24T10:39:11.364Z,57.43
2023-05-24T10:41:42.600Z,54.68
2023-05-24T10:44:14.708Z,55.60
2023-05-24T10:47:12.395Z,56.68
2023-05-24T10:49:52.696Z,57.93
2023-05-24T10:52:20.586Z,55.25
2023-05-24T10:55:08.676Z,58.87
2023-05-24T10:57:38.283Z,55.95
2023-05-24T11:00:35.118Z,56.72
2023-05-24T11:03:08.847Z,54.89
2023-05-24T11:05:56.868Z,53.69
2023-05-24T11:08:37.787Z,54.25
2023-05-24T11:11:26.709Z,57.86
2023-05-24T11:14:01.381Z,60.09
2023-05-24T11:16:38.838Z,56.03
2023-05-24T11:19:23.976Z,60.00
2023-05-24T11:21:54.534Z,58.41
2023-05-24T11:24:25.671Z,59.08
2023-05-24T11:26:53.067Z,57.11
2023-05-24T11:29:24.496Z,59.56
2023-05-24T11:32:05.109Z,59.00
2023-05-24T11:34:34.333Z,55.33
2023-05-24T11:37:06.094Z,55.93
2023-05-24T11:39:36.519Z,59.21
2023-05-24T11:42:08.633Z,57.08
2023-05-24T11:44:39.863Z,60.30
2023-05-24T11:47:08.658Z,54.98
2023-05-24T11:49:36.126Z,53.58
2023-05-24T11:52:03.185Z,55.03
2023-05-24T11:54:33.347Z,56.56
2023-05-24T11:57:01.817Z,59.42
2023-05-24T11:59:30.180Z,55.78
2023-05-24T12:02:02.638Z,51.77
2023-05-24T12:04:31.306Z,49.40
2023-05-24T12:06:58.791Z,53.55
2023-05-24T12:09:26.447Z,52.72
2023-05-24T12:11:54.600Z,51.54
2023-05-24T12:14:30.651Z,51.58
2023-05-24T12:16:57.668Z,54.40
2023-05-24T12:21:58.241Z,52.78
2023-05-24T12:24:27.214Z,51.88
2023-05-24T12:27:06.529Z,54.68
2023-05-24T12:29:40.747Z,51.31
2023-05-24T12:32:14.223Z,52.85
2023-05-24T12:34:42.994Z,53.80
2023-05-24T12:37:14.976Z,55.60
2023-05-24T12:39:43.329Z,55.55
2023-05-24T12:42:14.732Z,53.12
2023-05-24T12:44:42.401Z,53.58
2023-05-24T12:47:10.204Z,54.16
2023-05-24T12:49:37.254Z,55.41
2023-05-24T12:52:04.486Z,56.74
2023-05-24T12:54:31.723Z,56.08
2023-05-24T12:57:02.595Z,52.38
2023-05-24T12:59:30.019Z,58.74
2023-05-24T13:01:57.661Z,53.72
2023-05-24T13:04:30.405Z,54.94
2023-05-24T13:06:57.418Z,55.93
2023-05-24T13:09:25.921Z,55.13
2023-05-24T13:11:54.277Z,55.93
2023-05-24T13:14:22.674Z,58.17
2023-05-24T13:16:50.021Z,54.19
2023-05-24T13:19:17.378Z,53.89
2023-05-24T13:21:44.935Z,54.41
2023-05-24T13:24:16.015Z,54.04
2023-05-24T13:26:43.329Z,53.38
2023-05-24T13:31:41.072Z,53.78
2023-05-24T13:34:11.552Z,56.72
2023-05-24T13:36:39.082Z,54.70
2023-05-24T13:41:40.368Z,53.58
2023-05-24T13:44:07.516Z,48.28
2023-05-24T13:46:34.618Z,49.26
2023-05-24T13:49:02.314Z,50.44
2023-05-24T13:51:30.642Z,53.31
2023-05-24T13:53:57.764Z,52.19
2023-05-24T13:56:25.880Z,52.89
2023-05-24T13:58:53.483Z,55.28
2023-05-24T14:01:20.840Z,54.68
2023-05-24T14:03:47.966Z,52.97
2023-05-24T14:06:15.027Z,54.67
2023-05-24T14:08:42.520Z,54.21
2023-05-24T14:11:10.908Z,54.85
2023-05-24T14:16:08.991Z,57.33
2023-05-24T14:18:36.505Z,55.14
2023-05-24T14:21:04.036Z,51.80
2023-05-24T14:23:31.943Z,53.23
2023-05-24T14:26:00.137Z,56.69
2023-05-24T14:28:27.085Z,53.54
2023-05-24T14:30:54.149Z,50.41
2023-05-24T14:33:21.150Z,53.25
2023-05-24T14:35:48.391Z,54.41
2023-05-24T14:38:15.408Z,52.45
2023-05-24T14:40:42.488Z,55.71
2023-05-24T14:43:10.828Z,55.64
2023-05-24T14:45:42.190Z,53.17
2023-05-24T14:48:11.547Z,53.36
2023-05-24T14:50:41.013Z,54.39
2023-05-24T14:53:11.838Z,53.40
2023-05-24T14:55:41.783Z,53.64
2023-05-24T14:58:11.395Z,53.22
2023-05-24T15:00:41.102Z,55.30
2023-05-24T15:03:09.150Z,55.75
2023-05-24T15:05:37.066Z,51.08
2023-05-24T15:08:05.502Z,53.40
2023-05-24T15:10:33.960Z,55.67
2023-05-24T15:13:01.447Z,55.42
2023-05-24T15:15:28.946Z,53.36
2023-05-24T15:17:57.240Z,53.71
2023-05-24T15:22:52.518Z,53.98
2023-05-24T15:25:19.631Z,53.74
2023-05-24T15:27:47.373Z,53.07
2023-05-24T15:30:14.721Z,54.20
2023-05-24T15:32:41.909Z,52.56
2023-05-24T15:35:09.717Z,52.25
2023-05-24T15:37:36.686Z,53.93
2023-05-24T15:40:04.106Z,56.45
2023-05-24T15:42:32.188Z,54.57
2023-05-24T15:44:59.345Z,55.32
2023-05-24T15:47:29.168Z,56.07
2023-05-24T15:49:57.085Z,56.38
2023-05-24T15:52:24.208Z,55.34
2023-05-24T15:54:51.210Z,55.13
2023-05-24T15:57:18.193Z,54.50
2023-05-24T15:59:45.182Z,56.48
2023-05-24T16:02:12.193Z,55.48
2023-05-24T16:04:39.695Z,56.44
2023-05-24T16:07:07.204Z,56.13
2023-05-24T16:09:34.217Z,56.09
2023-05-24T16:12:01.354Z,55.33
2023-05-24T16:14:28.533Z,57.07
2023-05-24T16:16:58.537Z,57.72
2023-05-24T16:19:26.370Z,54.52
2023-05-24T16:21:53.321Z,58.07
2023-05-24T16:24:20.798Z,56.67
2023-05-24T16:26:47.778Z,55.73
2023-05-24T16:29:16.801Z,58.11
2023-05-24T16:31:43.912Z,57.44
2023-05-24T16:34:10.993Z,56.28
2023-05-24T16:36:38.209Z,56.90
2023-05-24T16:39:05.433Z,56.38
2023-05-24T16:41:37.434Z,55.11
2023-05-24T16:44:04.738Z,56.91
2023-05-24T16:46:32.372Z,55.91
2023-05-24T16:49:00.112Z,56.62
2023-05-24T16:51:27.370Z,56.39
2023-05-24T16:53:54.317Z,57.59
2023-05-24T16:56:21.623Z,58.61
2023-05-24T16:58:48.648Z,60.12
2023-05-24T17:01:15.771Z,59.50
2023-05-24T17:03:42.963Z,60.32
2023-05-24T17:06:09.934Z,61.15
2023-05-24T17:08:37.171Z,59.92
2023-05-24T17:11:05.529Z,62.22
2023-05-24T17:13:33.330Z,60.81
2023-05-24T17:16:00.710Z,62.08
2023-05-24T17:18:28.416Z,61.15
2023-05-24T17:21:00.648Z,62.09
2023-05-24T17:23:31.076Z,63.30
2023-05-24T17:25:58.633Z,61.85
2023-05-24T17:28:29.873Z,61.49
2023-05-24T17:30:58.690Z,61.21
2023-05-24T17:33:28.022Z,61.04
2023-05-24T17:35:56.630Z,63.23
2023-05-24T17:38:28.520Z,62.00
2023-05-24T17:41:01.811Z,62.67
2023-05-24T17:43:31.693Z,61.35
2023-05-24T17:46:03.855Z,60.66
2023-05-24T17:48:39.300Z,61.30
2023-05-24T17:51:08.835Z,60.31
2023-05-24T17:53:37.971Z,60.58
2023-05-24T17:56:06.183Z,61.33
2023-05-24T17:58:36.331Z,61.57
2023-05-24T18:01:11.413Z,62.21
2023-05-24T18:03:40.762Z,62.86
2023-05-24T18:06:08.838Z,62.20
2023-05-24T18:08:38.127Z,62.83
2023-05-24T18:11:08.504Z,63.82
2023-05-24T18:13:41.762Z,63.54
2023-05-24T18:16:12.763Z,63.09
2023-05-24T18:18:40.768Z,63.56
2023-05-24T18:21:09.560Z,63.53
2023-05-24T18:23:40.168Z,63.87
2023-05-24T18:26:08.916Z,64.95
2023-05-24T18:28:37.577Z,64.12
2023-05-24T18:31:10.506Z,64.03
2023-05-24T18:33:38.125Z,63.79
2023-05-24T18:36:05.837Z,64.37
2023-05-24T18:38:37.328Z,65.07
2023-05-24T18:41:06.297Z,64.67
2023-05-24T18:43:33.664Z,65.55
2023-05-24T18:46:01.109Z,65.47
2023-05-24T18:48:28.099Z,65.55
2023-05-24T18:50:55.097Z,65.80
2023-05-24T18:53:23.217Z,66.04
2023-05-24T18:55:50.957Z,66.87
2023-05-24T18:58:17.982Z,66.93
2023-05-24T19:00:44.984Z,67.25
2023-05-24T19:03:13.341Z,66.75
2023-05-24T19:05:43.525Z,66.64
2023-05-24T19:08:11.112Z,66.19
2023-05-24T19:10:38.078Z,65.05
2023-05-24T19:13:06.447Z,65.34
2023-05-24T19:15:36.594Z,65.08
2023-05-24T19:18:03.933Z,64.89
2023-05-24T19:20:31.111Z,64.93
2023-05-24T19:22:58.167Z,65.70
2023-05-24T19:25:25.461Z,65.07
2023-05-24T19:27:59.453Z,67.09
2023-05-24T19:30:27.593Z,66.16
2023-05-24T19:32:54.766Z,67.50
2023-05-24T19:35:21.847Z,67.90
2023-05-24T19:37:48.795Z,67.41
2023-05-24T19:40:16.196Z,68.99
2023-05-24T19:42:43.344Z,67.99
2023-05-24T19:45:12.000Z,67.22
2023-05-24T19:47:39.733Z,67.69
2023-05-24T19:50:07.860Z,67.46
2023-05-24T19:52:34.826Z,68.42
2023-05-24T19:55:02.955Z,68.47
2023-05-24T19:57:30.194Z,69.04
2023-05-24T19:59:57.165Z,68.43
2023-05-24T20:02:24.310Z,70.01
2023-05-24T20:04:51.252Z,70.31
2023-05-24T20:07:18.256Z,70.76
2023-05-24T20:09:45.415Z,70.82
2023-05-24T20:12:12.475Z,71.53
2023-05-24T20:14:39.424Z,72.50
2023-05-24T20:17:06.468Z,73.50
2023-05-24T20:19:33.538Z,73.76
2023-05-24T20:22:00.502Z,74.25
2023-05-24T20:24:27.456Z,74.80
2023-05-24T20:26:54.477Z,73.47
2023-05-24T20:29:21.555Z,73.23
2023-05-24T20:31:48.509Z,74.10
2023-05-24T20:34:15.505Z,74.84
2023-05-24T20:36:43.946Z,75.11
2023-05-24T20:39:11.342Z,76.25
2023-05-24T20:41:38.350Z,78.36
2023-05-24T20:44:05.381Z,77.82
2023-05-24T20:46:32.585Z,78.72
2023-05-24T20:48:59.715Z,80.17
2023-05-24T20:51:26.631Z,78.15
2023-05-24T20:53:53.765Z,78.08
2023-05-24T20:56:23.232Z,80.19
2023-05-24T20:58:52.918Z,79.68
2023-05-24T21:01:21.250Z,78.27
2023-05-24T21:03:48.572Z,78.77
2023-05-24T21:06:15.597Z,79.06
2023-05-24T21:08:43.431Z,79.38
2023-05-24T21:11:10.568Z,76.79
2023-05-24T21:13:37.700Z,78.60
2023-05-24T21:16:05.192Z,78.58
2023-05-24T21:18:33.382Z,77.88
2023-05-24T21:21:00.618Z,76.85
2023-05-24T21:23:27.621Z,79.07
2023-05-24T21:25:54.591Z,78.32
2023-05-24T21:28:21.493Z,77.98
2023-05-24T21:30:48.478Z,78.95
2023-05-24T21:33:16.434Z,79.39
2023-05-24T21:35:43.627Z,79.40
2023-05-24T21:38:10.965Z,79.63
2023-05-24T21:40:37.929Z,80.09
2023-05-24T21:43:05.265Z,79.46
2023-05-24T21:45:32.270Z,79.79
2023-05-24T21:47:59.363Z,78.43
2023-05-24T21:50:26.335Z,80.17
2023-05-24T21:52:53.270Z,79.67
2023-05-24T21:55:20.801Z,81.18
2023-05-24T21:57:48.139Z,81.74
2023-05-24T22:00:16.796Z,81.70
2023-05-24T22:02:43.846Z,80.70
2023-05-24T22:05:10.904Z,81.24
2023-05-24T22:07:37.988Z,80.65
2023-05-24T22:10:06.321Z,80.97
2023-05-24T22:12:34.545Z,82.11
2023-05-24T22:15:02.083Z,82.90
2023-05-24T22:17:29.383Z,82.22
2023-05-24T22:19:56.449Z,81.84
2023-05-24T22:22:23.392Z,82.21
2023-05-24T22:24:50.854Z,83.02
2023-05-24T22:27:17.984Z,84.68
2023-05-24T22:29:45.015Z,84.33
2023-05-24T22:32:12.211Z,86.43
2023-05-24T22:34:39.714Z,86.72
2023-05-24T22:37:07.386Z,86.89
2023-05-24T22:39:34.322Z,87.39
2023-05-24T22:42:01.688Z,89.04
2023-05-24T22:44:28.670Z,87.52
2023-05-24T22:46:56.473Z,87.10
2023-05-24T22:49:23.483Z,87.25
2023-05-24T22:51:51.161Z,88.85
2023-05-24T22:54:18.323Z,88.55
2023-05-24T22:56:46.472Z,87.83
2023-05-24T22:59:13.609Z,88.21
2023-05-24T23:01:40.738Z,89.65
2023-05-24T23:04:20.543Z,88.62
2023-05-24T23:06:52.864Z,90.74
2023-05-24T23:09:34.503Z,89.75
2023-05-24T23:12:07.639Z,90.30
2023-05-24T23:14:41.626Z,90.18
2023-05-24T23:17:13.436Z,90.56
2023-05-24T23:19:44.835Z,90.00
2023-05-24T23:22:13.447Z,89.14
2023-05-24T23:24:44.832Z,88.56
2023-05-24T23:27:11.884Z,89.46
2023-05-24T23:29:39.178Z,90.28
2023-05-24T23:32:08.088Z,90.32
2023-05-24T23:34:35.152Z,91.40
2023-05-24T23:37:04.029Z,91.06
2023-05-24T23:39:31.281Z,90.74
2023-05-24T23:41:58.228Z,90.55
2023-05-24T23:44:25.885Z,91.60
2023-05-24T23:46:53.818Z,90.78
2023-05-24T23:49:20.870Z,91.49
2023-05-24T23:51:48.033Z,93.03
2023-05-24T23:54:15.704Z,91.66
2023-05-24T23:56:45.734Z,91.93
2023-05-24T23:59:12.737Z,92.39
